sensor_id;sensor_type;location;lat;lon;timestamp;temperature;humidity
69938;DHT22;57248;47.320;15.998;2023-01-10T00:01:23;2.86;99.99
69938;DHT22;57248;47.320;15.998;2023-01-10T00:03:48;2.88;99.99
69938;DHT22;57248;47.320;15.998;2023-01-10T00:06:21;2.81;99.99
69938;DHT22;57248;47.320;15.998;2023-01-10T00:08:59;2.79;99.99
69938;DHT22;57248;47.320;15.998;2023-01-10T00:11:32;2.86;99.99
69938;DHT22;57248;47.320;15.998;2023-01-10T00:14:23;2.83;99.99
69938;DHT22;57248;47.320;15.998;2023-01-10T00:16:57;2.86;99.99
69938;DHT22;57248;47.320;15.998;2023-01-10T00:19:29;2.81;99.99
69938;DHT22;57248;47.320;15.998;2023-01-10T00:22:01;2.82;99.99
69938;DHT22;57248;47.320;15.998;2023-01-10T00:24:40;2.85;99.99
69938;DHT22;57248;47.320;15.998;2023-01-10T00:27:13;2.85;99.99
69938;DHT22;57248;47.320;15.998;2023-01-10T00:29:53;2.78;99.99
69938;DHT22;57248;47.320;15.998;2023-01-10T00:32:25;2.81;99.99
69938;DHT22;57248;47.320;15.998;2023-01-10T00:34:57;2.86;99.99
69938;DHT22;57248;47.320;15.998;2023-01-10T00:37:29;2.83;99.99
69938;DHT22;57248;47.320;15.998;2023-01-10T00:40:01;2.85;99.99
69938;DHT22;57248;47.320;15.998;2023-01-10T00:42:33;2.79;99.99
69938;DHT22;57248;47.320;15.998;2023-01-10T00:45:24;2.85;99.99
69938;DHT22;57248;47.320;15.998;2023-01-10T00:47:57;2.89;99.99
69938;DHT22;57248;47.320;15.998;2023-01-10T00:50:22;2.85;99.99
69938;DHT22;57248;47.320;15.998;2023-01-10T00:52:54;2.83;99.99
69938;DHT22;57248;47.320;15.998;2023-01-10T00:55:19;2.83;99.99
69938;DHT22;57248;47.320;15.998;2023-01-10T00:57:51;2.76;99.99
69938;DHT22;57248;47.320;15.998;2023-01-10T01:00:23;2.78;99.99
69938;DHT22;57248;47.320;15.998;2023-01-10T01:02:55;2.82;99.99
69938;DHT22;57248;47.320;15.998;2023-01-10T01:05:27;2.83;99.99
69938;DHT22;57248;47.320;15.998;2023-01-10T01:07:59;2.86;99.99
69938;DHT22;57248;47.320;15.998;2023-01-10T01:10:31;2.86;99.99
69938;DHT22;57248;47.320;15.998;2023-01-10T01:13:17;2.79;99.85
69938;DHT22;57248;47.320;15.998;2023-01-10T01:15:50;2.79;99.99
69938;DHT22;57248;47.320;15.998;2023-01-10T01:18:22;2.69;99.99
69938;DHT22;57248;47.320;15.998;2023-01-10T01:20:55;2.72;99.99
69938;DHT22;57248;47.320;15.998;2023-01-10T01:23:29;2.73;99.99
69938;DHT22;57248;47.320;15.998;2023-01-10T01:26:01;2.69;99.99
69938;DHT22;57248;47.320;15.998;2023-01-10T01:28:33;2.81;99.99
69938;DHT22;57248;47.320;15.998;2023-01-10T01:31:08;2.91;99.99
69938;DHT22;57248;47.320;15.998;2023-01-10T01:33:41;2.96;99.99
69938;DHT22;57248;47.320;15.998;2023-01-10T01:36:13;2.93;99.99
69938;DHT22;57248;47.320;15.998;2023-01-10T01:38:45;2.93;99.95
69938;DHT22;57248;47.320;15.998;2023-01-10T01:41:17;2.89;99.99
69938;DHT22;57248;47.320;15.998;2023-01-10T01:44:16;2.69;99.99
69938;DHT22;57248;47.320;15.998;2023-01-10T01:47:05;2.71;99.99
69938;DHT22;57248;47.320;15.998;2023-01-10T01:49:39;2.72;99.99
69938;DHT22;57248;47.320;15.998;2023-01-10T01:52:22;2.68;99.99
69938;DHT22;57248;47.320;15.998;2023-01-10T01:54:57;2.65;99.99
69938;DHT22;57248;47.320;15.998;2023-01-10T01:57:31;2.78;99.99
69938;DHT22;57248;47.320;15.998;2023-01-10T02:00:04;2.76;99.99
69938;DHT22;57248;47.320;15.998;2023-01-10T02:02:53;2.69;99.99
69938;DHT22;57248;47.320;15.998;2023-01-10T02:05:26;2.69;99.99
69938;DHT22;57248;47.320;15.998;2023-01-10T02:08:12;2.91;99.99
69938;DHT22;57248;47.320;15.998;2023-01-10T02:10:48;2.82;99.75
69938;DHT22;57248;47.320;15.998;2023-01-10T02:13:24;2.69;99.99
69938;DHT22;57248;47.320;15.998;2023-01-10T02:15:57;2.75;99.99
69938;DHT22;57248;47.320;15.998;2023-01-10T02:18:29;2.72;99.99
69938;DHT22;57248;47.320;15.998;2023-01-10T02:37:53;2.56;99.99
69938;DHT22;57248;47.320;15.998;2023-01-10T02:43:31;2.61;99.99
69938;DHT22;57248;47.320;15.998;2023-01-10T02:46:08;2.72;98.79
69938;DHT22;57248;47.320;15.998;2023-01-10T02:48:42;2.69;99.99
69938;DHT22;57248;47.320;15.998;2023-01-10T02:51:35;2.71;99.99
69938;DHT22;57248;47.320;15.998;2023-01-10T02:54:10;3.06;95.24
69938;DHT22;57248;47.320;15.998;2023-01-10T03:11:11;2.99;96.36
69938;DHT22;57248;47.320;15.998;2023-01-10T03:13:51;2.92;97.04
69938;DHT22;57248;47.320;15.998;2023-01-10T03:16:27;3.07;95.43
69938;DHT22;57248;47.320;15.998;2023-01-10T03:19:07;3.28;92.45
69938;DHT22;57248;47.320;15.998;2023-01-10T03:21:42;3.63;89.08
69938;DHT22;57248;47.320;15.998;2023-01-10T03:24:17;3.67;88.23
69938;DHT22;57248;47.320;15.998;2023-01-10T03:26:56;3.79;87.01
69938;DHT22;57248;47.320;15.998;2023-01-10T03:29:48;3.71;88.16
69938;DHT22;57248;47.320;15.998;2023-01-10T03:32:24;3.82;86.84
69938;DHT22;57248;47.320;15.998;2023-01-10T03:34:59;3.54;90.16
69938;DHT22;57248;47.320;15.998;2023-01-10T03:40:19;3.50;91.96
69938;DHT22;57248;47.320;15.998;2023-01-10T03:43:47;3.38;91.85
69938;DHT22;57248;47.320;15.998;2023-01-10T03:46:43;3.95;85.82
69938;DHT22;57248;47.320;15.998;2023-01-10T03:49:18;4.09;85.82
69938;DHT22;57248;47.320;15.998;2023-01-10T03:51:51;4.33;82.67
69938;DHT22;57248;47.320;15.998;2023-01-10T03:54:25;4.15;85.03
69938;DHT22;57248;47.320;15.998;2023-01-10T03:56:50;4.39;83.06
69938;DHT22;57248;47.320;15.998;2023-01-10T03:59:25;4.33;83.16
69938;DHT22;57248;47.320;15.998;2023-01-10T04:01:58;4.28;83.82
69938;DHT22;57248;47.320;15.998;2023-01-10T04:04:30;4.39;82.80
69938;DHT22;57248;47.320;15.998;2023-01-10T04:06:56;4.78;79.47
69938;DHT22;57248;47.320;15.998;2023-01-10T04:09:28;4.91;78.81
69938;DHT22;57248;47.320;15.998;2023-01-10T04:12:00;4.80;80.45
69938;DHT22;57248;47.320;15.998;2023-01-10T04:14:32;4.77;80.37
69938;DHT22;57248;47.320;15.998;2023-01-10T04:17:04;4.60;81.51
69938;DHT22;57248;47.320;15.998;2023-01-10T04:19:37;4.71;80.32
69938;DHT22;57248;47.320;15.998;2023-01-10T04:22:09;4.67;81.23
69938;DHT22;57248;47.320;15.998;2023-01-10T04:24:42;4.74;81.51
69938;DHT22;57248;47.320;15.998;2023-01-10T04:27:15;4.91;79.57
69938;DHT22;57248;47.320;15.998;2023-01-10T04:29:47;4.88;80.00
69938;DHT22;57248;47.320;15.998;2023-01-10T04:32:20;4.94;79.88
69938;DHT22;57248;47.320;15.998;2023-01-10T04:34:52;5.05;77.87
69938;DHT22;57248;47.320;15.998;2023-01-10T04:37:18;5.01;78.25
69938;DHT22;57248;47.320;15.998;2023-01-10T04:39:50;5.09;78.58
69938;DHT22;57248;47.320;15.998;2023-01-10T04:42:22;5.11;78.46
69938;DHT22;57248;47.320;15.998;2023-01-10T04:44:54;4.99;79.06
69938;DHT22;57248;47.320;15.998;2023-01-10T04:47:26;5.26;76.58
69938;DHT22;57248;47.320;15.998;2023-01-10T04:49:58;5.22;76.30
69938;DHT22;57248;47.320;15.998;2023-01-10T04:52:30;5.12;77.75
69938;DHT22;57248;47.320;15.998;2023-01-10T04:55:02;5.18;77.36
69938;DHT22;57248;47.320;15.998;2023-01-10T04:57:34;5.16;77.76
69938;DHT22;57248;47.320;15.998;2023-01-10T05:00:07;5.21;77.49
69938;DHT22;57248;47.320;15.998;2023-01-10T05:02:40;5.14;78.32
69938;DHT22;57248;47.320;15.998;2023-01-10T05:05:15;5.16;77.78
69938;DHT22;57248;47.320;15.998;2023-01-10T05:07:47;5.32;76.35
69938;DHT22;57248;47.320;15.998;2023-01-10T05:10:26;5.28;76.93
69938;DHT22;57248;47.320;15.998;2023-01-10T05:12:58;5.70;75.14
69938;DHT22;57248;47.320;15.998;2023-01-10T05:15:30;5.32;77.51
69938;DHT22;57248;47.320;15.998;2023-01-10T05:18:02;5.23;77.31
69938;DHT22;57248;47.320;15.998;2023-01-10T05:20:34;5.16;77.65
69938;DHT22;57248;47.320;15.998;2023-01-10T05:23:06;5.28;76.37
69938;DHT22;57248;47.320;15.998;2023-01-10T05:25:38;5.32;75.92
69938;DHT22;57248;47.320;15.998;2023-01-10T05:28:10;5.29;76.11
69938;DHT22;57248;47.320;15.998;2023-01-10T05:30:42;6.01;78.80
69938;DHT22;57248;47.320;15.998;2023-01-10T05:33:14;5.97;75.89
69938;DHT22;57248;47.320;15.998;2023-01-10T05:35:46;5.64;73.93
69938;DHT22;57248;47.320;15.998;2023-01-10T05:38:18;5.56;74.58
69938;DHT22;57248;47.320;15.998;2023-01-10T05:40:54;5.49;74.50
69938;DHT22;57248;47.320;15.998;2023-01-10T05:43:27;5.44;74.87
69938;DHT22;57248;47.320;15.998;2023-01-10T05:45:59;5.49;74.86
69938;DHT22;57248;47.320;15.998;2023-01-10T05:48:31;5.47;75.16
69938;DHT22;57248;47.320;15.998;2023-01-10T05:51:03;5.56;74.31
69938;DHT22;57248;47.320;15.998;2023-01-10T05:53:36;5.47;74.34
69938;DHT22;57248;47.320;15.998;2023-01-10T05:56:08;5.57;74.02
69938;DHT22;57248;47.320;15.998;2023-01-10T05:58:41;5.47;75.13
69938;DHT22;57248;47.320;15.998;2023-01-10T06:01:13;5.39;75.17
69938;DHT22;57248;47.320;15.998;2023-01-10T06:03:45;5.43;75.04
69938;DHT22;57248;47.320;15.998;2023-01-10T06:06:10;5.46;74.40
69938;DHT22;57248;47.320;15.998;2023-01-10T06:08:49;5.53;73.62
69938;DHT22;57248;47.320;15.998;2023-01-10T06:11:21;5.50;73.88
69938;DHT22;57248;47.320;15.998;2023-01-10T06:14:00;5.59;73.23
69938;DHT22;57248;47.320;15.998;2023-01-10T06:16:25;5.44;75.52
69938;DHT22;57248;47.320;15.998;2023-01-10T06:18:58;5.38;74.85
69938;DHT22;57248;47.320;15.998;2023-01-10T06:21:30;5.46;74.38
69938;DHT22;57248;47.320;15.998;2023-01-10T06:24:03;5.50;74.11
69938;DHT22;57248;47.320;15.998;2023-01-10T06:26:35;5.50;73.87
69938;DHT22;57248;47.320;15.998;2023-01-10T06:29:07;5.53;73.86
69938;DHT22;57248;47.320;15.998;2023-01-10T06:31:39;5.64;73.10
69938;DHT22;57248;47.320;15.998;2023-01-10T06:34:11;5.63;73.14
69938;DHT22;57248;47.320;15.998;2023-01-10T06:36:43;5.62;73.50
69938;DHT22;57248;47.320;15.998;2023-01-10T06:39:15;5.57;74.01
69938;DHT22;57248;47.320;15.998;2023-01-10T06:41:47;5.78;71.80
69938;DHT22;57248;47.320;15.998;2023-01-10T06:44:19;5.97;70.82
69938;DHT22;57248;47.320;15.998;2023-01-10T06:46:51;5.89;72.35
69938;DHT22;57248;47.320;15.998;2023-01-10T06:49:23;5.93;71.78
69938;DHT22;57248;47.320;15.998;2023-01-10T06:51:55;5.80;72.81
69938;DHT22;57248;47.320;15.998;2023-01-10T06:54:27;5.80;72.56
69938;DHT22;57248;47.320;15.998;2023-01-10T06:56:59;5.86;72.30
69938;DHT22;57248;47.320;15.998;2023-01-10T06:59:31;5.80;72.75
69938;DHT22;57248;47.320;15.998;2023-01-10T07:02:03;6.01;71.94
69938;DHT22;57248;47.320;15.998;2023-01-10T07:04:35;5.86;73.13
69938;DHT22;57248;47.320;15.998;2023-01-10T07:07:00;6.22;70.27
69938;DHT22;57248;47.320;15.998;2023-01-10T07:09:32;6.03;72.15
69938;DHT22;57248;47.320;15.998;2023-01-10T07:12:04;6.11;71.08
69938;DHT22;57248;47.320;15.998;2023-01-10T07:14:37;6.07;71.69
69938;DHT22;57248;47.320;15.998;2023-01-10T07:17:09;6.04;72.35
69938;DHT22;57248;47.320;15.998;2023-01-10T07:19:41;6.24;70.56
69938;DHT22;57248;47.320;15.998;2023-01-10T07:22:13;6.18;71.04
69938;DHT22;57248;47.320;15.998;2023-01-10T07:24:45;6.11;71.65
69938;DHT22;57248;47.320;15.998;2023-01-10T07:27:17;6.07;72.28
69938;DHT22;57248;47.320;15.998;2023-01-10T07:29:49;6.11;72.06
69938;DHT22;57248;47.320;15.998;2023-01-10T07:32:21;6.12;72.41
69938;DHT22;57248;47.320;15.998;2023-01-10T07:34:53;6.20;71.53
69938;DHT22;57248;47.320;15.998;2023-01-10T07:37:25;6.20;72.09
69938;DHT22;57248;47.320;15.998;2023-01-10T07:39:57;6.20;72.14
69938;DHT22;57248;47.320;15.998;2023-01-10T07:42:22;6.21;72.36
69938;DHT22;57248;47.320;15.998;2023-01-10T07:44:55;6.20;72.79
69938;DHT22;57248;47.320;15.998;2023-01-10T07:47:28;6.26;72.17
69938;DHT22;57248;47.320;15.998;2023-01-10T07:49:53;6.36;71.72
69938;DHT22;57248;47.320;15.998;2023-01-10T07:52:26;6.48;70.76
69938;DHT22;57248;47.320;15.998;2023-01-10T07:54:58;6.48;71.31
69938;DHT22;57248;47.320;15.998;2023-01-10T07:57:30;6.53;71.54
69938;DHT22;57248;47.320;15.998;2023-01-10T08:00:02;6.59;70.37
69938;DHT22;57248;47.320;15.998;2023-01-10T08:02:35;6.68;70.10
69938;DHT22;57248;47.320;15.998;2023-01-10T08:05:07;6.72;70.05
69938;DHT22;57248;47.320;15.998;2023-01-10T08:07:39;6.71;69.84
69938;DHT22;57248;47.320;15.998;2023-01-10T08:10:26;6.69;70.75
69938;DHT22;57248;47.320;15.998;2023-01-10T08:12:58;6.79;69.08
69938;DHT22;57248;47.320;15.998;2023-01-10T08:15:30;6.75;69.87
69938;DHT22;57248;47.320;15.998;2023-01-10T08:18:02;6.84;69.41
69938;DHT22;57248;47.320;15.998;2023-01-10T08:20:34;6.87;70.61
69938;DHT22;57248;47.320;15.998;2023-01-10T08:23:06;6.96;68.91
69938;DHT22;57248;47.320;15.998;2023-01-10T08:25:38;7.00;69.81
69938;DHT22;57248;47.320;15.998;2023-01-10T08:28:03;7.03;68.38
69938;DHT22;57248;47.320;15.998;2023-01-10T08:30:35;7.04;69.22
69938;DHT22;57248;47.320;15.998;2023-01-10T08:33:09;7.08;68.61
69938;DHT22;57248;47.320;15.998;2023-01-10T08:35:42;7.04;68.25
69938;DHT22;57248;47.320;15.998;2023-01-10T08:38:09;7.21;66.93
69938;DHT22;57248;47.320;15.998;2023-01-10T08:40:41;7.30;66.13
69938;DHT22;57248;47.320;15.998;2023-01-10T08:43:09;7.38;66.22
69938;DHT22;57248;47.320;15.998;2023-01-10T08:45:41;7.35;66.73
69938;DHT22;57248;47.320;15.998;2023-01-10T08:48:13;7.48;65.68
69938;DHT22;57248;47.320;15.998;2023-01-10T08:50:45;7.61;66.48
69938;DHT22;57248;47.320;15.998;2023-01-10T08:53:17;7.85;66.90
69938;DHT22;57248;47.320;15.998;2023-01-10T08:55:50;8.00;64.68
69938;DHT22;57248;47.320;15.998;2023-01-10T08:58:36;8.04;64.40
69938;DHT22;57248;47.320;15.998;2023-01-10T09:01:09;8.04;61.27
69938;DHT22;57248;47.320;15.998;2023-01-10T09:03:42;8.16;63.99
69938;DHT22;57248;47.320;15.998;2023-01-10T09:06:16;8.27;63.74
69938;DHT22;57248;47.320;15.998;2023-01-10T09:08:48;8.14;61.19
69938;DHT22;57248;47.320;15.998;2023-01-10T09:11:28;8.22;62.43
69938;DHT22;57248;47.320;15.998;2023-01-10T09:14:00;8.17;63.15
69938;DHT22;57248;47.320;15.998;2023-01-10T09:16:32;8.37;62.91
69938;DHT22;57248;47.320;15.998;2023-01-10T09:19:05;8.26;62.90
69938;DHT22;57248;47.320;15.998;2023-01-10T09:21:37;8.26;61.63
69938;DHT22;57248;47.320;15.998;2023-01-10T09:24:09;8.23;61.22
69938;DHT22;57248;47.320;15.998;2023-01-10T09:26:41;8.36;62.15
69938;DHT22;57248;47.320;15.998;2023-01-10T09:29:13;8.30;61.57
69938;DHT22;57248;47.320;15.998;2023-01-10T09:31:45;8.27;61.99
69938;DHT22;57248;47.320;15.998;2023-01-10T09:34:17;8.45;61.44
69938;DHT22;57248;47.320;15.998;2023-01-10T09:36:49;8.48;61.36
69938;DHT22;57248;47.320;15.998;2023-01-10T09:39:21;8.44;60.26
69938;DHT22;57248;47.320;15.998;2023-01-10T09:48:05;8.58;60.97
69938;DHT22;57248;47.320;15.998;2023-01-10T09:51:48;8.69;60.69
69938;DHT22;57248;47.320;15.998;2023-01-10T09:53:57;8.71;60.34
69938;DHT22;57248;47.320;15.998;2023-01-10T09:56:32;8.76;60.33
69938;DHT22;57248;47.320;15.998;2023-01-10T09:59:10;8.98;59.98
69938;DHT22;57248;47.320;15.998;2023-01-10T10:01:46;9.03;58.75
69938;DHT22;57248;47.320;15.998;2023-01-10T10:04:34;8.92;59.04
69938;DHT22;57248;47.320;15.998;2023-01-10T10:07:14;8.92;59.67
69938;DHT22;57248;47.320;15.998;2023-01-10T10:09:46;8.88;60.94
69938;DHT22;57248;47.320;15.998;2023-01-10T10:14:58;8.82;60.02
69938;DHT22;57248;47.320;15.998;2023-01-10T10:20:25;9.23;60.40
69938;DHT22;57248;47.320;15.998;2023-01-10T10:36:57;9.54;58.71
69938;DHT22;57248;47.320;15.998;2023-01-10T10:39:47;9.32;58.33
69938;DHT22;57248;47.320;15.998;2023-01-10T10:42:20;9.73;58.42
69938;DHT22;57248;47.320;15.998;2023-01-10T10:45:02;9.51;59.06
69938;DHT22;57248;47.320;15.998;2023-01-10T10:47:37;9.34;58.09
69938;DHT22;57248;47.320;15.998;2023-01-10T10:52:45;9.43;58.78
69938;DHT22;57248;47.320;15.998;2023-01-10T10:55:27;9.69;57.14
69938;DHT22;57248;47.320;15.998;2023-01-10T10:58:02;9.30;55.28
69938;DHT22;57248;47.320;15.998;2023-01-10T11:00:35;9.63;56.97
69938;DHT22;57248;47.320;15.998;2023-01-10T11:03:56;9.70;55.98
69938;DHT22;57248;47.320;15.998;2023-01-10T11:06:08;9.65;56.97
69938;DHT22;57248;47.320;15.998;2023-01-10T11:08:43;10.22;55.78
69938;DHT22;57248;47.320;15.998;2023-01-10T11:11:32;9.88;56.74
69938;DHT22;57248;47.320;15.998;2023-01-10T11:14:07;9.81;55.47
69938;DHT22;57248;47.320;15.998;2023-01-10T11:16:43;10.31;55.76
69938;DHT22;57248;47.320;15.998;2023-01-10T11:19:24;10.85;54.37
69938;DHT22;57248;47.320;15.998;2023-01-10T11:22:05;10.64;55.75
69938;DHT22;57248;47.320;15.998;2023-01-10T11:24:43;10.32;53.90
69938;DHT22;57248;47.320;15.998;2023-01-10T11:27:29;10.41;55.09
69938;DHT22;57248;47.320;15.998;2023-01-10T11:30:06;10.41;54.91
69938;DHT22;57248;47.320;15.998;2023-01-10T11:32:48;10.42;54.56
69938;DHT22;57248;47.320;15.998;2023-01-10T11:35:29;10.50;53.58
69938;DHT22;57248;47.320;15.998;2023-01-10T11:38:19;10.99;53.40
69938;DHT22;57248;47.320;15.998;2023-01-10T11:41:00;11.03;52.94
69938;DHT22;57248;47.320;15.998;2023-01-10T11:43:36;10.49;52.71
69938;DHT22;57248;47.320;15.998;2023-01-10T11:46:14;10.93;52.30
69938;DHT22;57248;47.320;15.998;2023-01-10T11:51:57;10.97;51.62
69938;DHT22;57248;47.320;15.998;2023-01-10T11:54:31;11.03;51.73
69938;DHT22;57248;47.320;15.998;2023-01-10T11:57:16;11.41;50.30
69938;DHT22;57248;47.320;15.998;2023-01-10T12:00:12;11.17;52.42
69938;DHT22;57248;47.320;15.998;2023-01-10T12:02:43;10.74;52.44
69938;DHT22;57248;47.320;15.998;2023-01-10T12:05:20;10.43;52.53
69938;DHT22;57248;47.320;15.998;2023-01-10T12:07:54;10.29;52.49
69938;DHT22;57248;47.320;15.998;2023-01-10T12:10:37;10.35;52.65
69938;DHT22;57248;47.320;15.998;2023-01-10T12:13:13;10.59;52.50
69938;DHT22;57248;47.320;15.998;2023-01-10T12:15:46;10.49;51.98
69938;DHT22;57248;47.320;15.998;2023-01-10T12:18:20;10.05;52.46
69938;DHT22;57248;47.320;15.998;2023-01-10T12:20:52;10.35;52.53
69938;DHT22;57248;47.320;15.998;2023-01-10T12:23:27;10.18;52.24
69938;DHT22;57248;47.320;15.998;2023-01-10T12:25:59;10.31;52.96
69938;DHT22;57248;47.320;15.998;2023-01-10T12:28:31;10.56;51.77
69938;DHT22;57248;47.320;15.998;2023-01-10T12:31:05;10.69;52.36
69938;DHT22;57248;47.320;15.998;2023-01-10T12:33:46;10.32;51.94
69938;DHT22;57248;47.320;15.998;2023-01-10T12:36:33;10.18;52.57
69938;DHT22;57248;47.320;15.998;2023-01-10T12:39:30;10.29;51.88
69938;DHT22;57248;47.320;15.998;2023-01-10T12:45:07;10.49;51.94
69938;DHT22;57248;47.320;15.998;2023-01-10T12:47:56;10.97;51.98
69938;DHT22;57248;47.320;15.998;2023-01-10T12:50:37;10.89;50.14
69938;DHT22;57248;47.320;15.998;2023-01-10T12:56:02;10.81;48.51
69938;DHT22;57248;47.320;15.998;2023-01-10T13:01:20;11.24;47.70
69938;DHT22;57248;47.320;15.998;2023-01-10T13:04:02;11.83;49.68
69938;DHT22;57248;47.320;15.998;2023-01-10T13:06:41;12.19;48.33
69938;DHT22;57248;47.320;15.998;2023-01-10T13:09:21;11.71;46.83
69938;DHT22;57248;47.320;15.998;2023-01-10T13:12:02;11.59;47.09
69938;DHT22;57248;47.320;15.998;2023-01-10T13:14:42;10.72;48.91
69938;DHT22;57248;47.320;15.998;2023-01-10T13:17:18;10.33;48.55
69938;DHT22;57248;47.320;15.998;2023-01-10T13:22:49;10.48;49.02
69938;DHT22;57248;47.320;15.998;2023-01-10T13:25:32;10.15;49.25
69938;DHT22;57248;47.320;15.998;2023-01-10T13:28:22;10.15;49.89
69938;DHT22;57248;47.320;15.998;2023-01-10T13:30:57;10.49;49.85
69938;DHT22;57248;47.320;15.998;2023-01-10T13:36:24;9.80;50.09
69938;DHT22;57248;47.320;15.998;2023-01-10T13:39:01;9.88;50.50
69938;DHT22;57248;47.320;15.998;2023-01-10T13:50:51;10.04;50.70
69938;DHT22;57248;47.320;15.998;2023-01-10T13:55:59;10.42;49.44
69938;DHT22;57248;47.320;15.998;2023-01-10T13:58:41;10.26;49.34
69938;DHT22;57248;47.320;15.998;2023-01-10T14:01:35;10.85;49.87
69938;DHT22;57248;47.320;15.998;2023-01-10T14:04:28;10.85;48.36
69938;DHT22;57248;47.320;15.998;2023-01-10T14:07:20;10.84;48.47
69938;DHT22;57248;47.320;15.998;2023-01-10T14:09:59;10.80;48.72
69938;DHT22;57248;47.320;15.998;2023-01-10T14:13:01;10.50;49.36
69938;DHT22;57248;47.320;15.998;2023-01-10T14:15:42;10.05;49.13
69938;DHT22;57248;47.320;15.998;2023-01-10T14:21:01;9.85;49.54
69938;DHT22;57248;47.320;15.998;2023-01-10T14:23:36;10.08;49.12
69938;DHT22;57248;47.320;15.998;2023-01-10T14:28:53;10.05;51.01
69938;DHT22;57248;47.320;15.998;2023-01-10T14:31:26;9.77;51.25
69938;DHT22;57248;47.320;15.998;2023-01-10T14:33:58;9.15;52.18
69938;DHT22;57248;47.320;15.998;2023-01-10T14:36:37;9.15;52.54
69938;DHT22;57248;47.320;15.998;2023-01-10T14:39:13;8.99;53.04
69938;DHT22;57248;47.320;15.998;2023-01-10T14:41:49;8.47;57.35
69938;DHT22;57248;47.320;15.998;2023-01-10T14:44:58;8.54;56.90
69938;DHT22;57248;47.320;15.998;2023-01-10T14:47:34;8.30;57.82
69938;DHT22;57248;47.320;15.998;2023-01-10T14:50:25;8.24;57.97
69938;DHT22;57248;47.320;15.998;2023-01-10T14:52:59;8.13;58.56
69938;DHT22;57248;47.320;15.998;2023-01-10T14:55:31;8.09;59.71
69938;DHT22;57248;47.320;15.998;2023-01-10T14:58:03;7.90;60.38
69938;DHT22;57248;47.320;15.998;2023-01-10T15:00:35;7.87;59.55
69938;DHT22;57248;47.320;15.998;2023-01-10T15:03:17;7.85;60.55
69938;DHT22;57248;47.320;15.998;2023-01-10T15:05:52;7.96;60.42
69938;DHT22;57248;47.320;15.998;2023-01-10T15:08:32;7.66;61.00
69938;DHT22;57248;47.320;15.998;2023-01-10T15:11:06;7.44;62.17
69938;DHT22;57248;47.320;15.998;2023-01-10T15:13:49;7.63;62.44
69938;DHT22;57248;47.320;15.998;2023-01-10T15:16:24;7.40;62.77
69938;DHT22;57248;47.320;15.998;2023-01-10T15:18:58;7.23;63.13
69938;DHT22;57248;47.320;15.998;2023-01-10T15:21:30;7.13;63.73
69938;DHT22;57248;47.320;15.998;2023-01-10T15:24:42;6.97;64.72
69938;DHT22;57248;47.320;15.998;2023-01-10T15:27:14;6.94;64.75
69938;DHT22;57248;47.320;15.998;2023-01-10T15:29:46;6.86;65.64
69938;DHT22;57248;47.320;15.998;2023-01-10T15:32:31;6.63;67.02
69938;DHT22;57248;47.320;15.998;2023-01-10T15:35:06;6.56;67.47
69938;DHT22;57248;47.320;15.998;2023-01-10T15:37:49;6.32;69.09
69938;DHT22;57248;47.320;15.998;2023-01-10T15:40:28;6.31;69.09
69938;DHT22;57248;47.320;15.998;2023-01-10T15:45:50;6.38;69.26
69938;DHT22;57248;47.320;15.998;2023-01-10T15:48:24;6.18;70.24
69938;DHT22;57248;47.320;15.998;2023-01-10T15:51:02;6.01;70.84
69938;DHT22;57248;47.320;15.998;2023-01-10T15:56:34;5.91;70.95
69938;DHT22;57248;47.320;15.998;2023-01-10T16:02:30;5.67;71.62
69938;DHT22;57248;47.320;15.998;2023-01-10T16:05:08;5.81;71.33
69938;DHT22;57248;47.320;15.998;2023-01-10T16:07:45;5.67;71.38
69938;DHT22;57248;47.320;15.998;2023-01-10T16:10:32;5.66;71.94
69938;DHT22;57248;47.320;15.998;2023-01-10T16:13:08;5.46;71.68
69938;DHT22;57248;47.320;15.998;2023-01-10T16:16:01;5.42;71.83
69938;DHT22;57248;47.320;15.998;2023-01-10T16:18:36;5.40;71.38
69938;DHT22;57248;47.320;15.998;2023-01-10T16:21:10;5.36;71.02
69938;DHT22;57248;47.320;15.998;2023-01-10T16:23:44;5.43;70.79
69938;DHT22;57248;47.320;15.998;2023-01-10T16:26:17;5.29;71.65
69938;DHT22;57248;47.320;15.998;2023-01-10T16:28:50;5.22;71.76
69938;DHT22;57248;47.320;15.998;2023-01-10T16:31:15;5.19;71.67
69938;DHT22;57248;47.320;15.998;2023-01-10T16:33:47;5.16;71.65
69938;DHT22;57248;47.320;15.998;2023-01-10T16:36:20;5.15;72.06
69938;DHT22;57248;47.320;15.998;2023-01-10T16:38:52;5.09;72.31
69938;DHT22;57248;47.320;15.998;2023-01-10T16:41:25;5.09;72.13
69938;DHT22;57248;47.320;15.998;2023-01-10T16:44:16;5.15;72.10
69938;DHT22;57248;47.320;15.998;2023-01-10T16:46:50;5.11;72.28
69938;DHT22;57248;47.320;15.998;2023-01-10T16:49:23;6.15;69.64
69938;DHT22;57248;47.320;15.998;2023-01-10T16:51:55;5.39;70.80
69938;DHT22;57248;47.320;15.998;2023-01-10T16:54:28;5.14;71.40
69938;DHT22;57248;47.320;15.998;2023-01-10T16:57:00;5.11;71.14
69938;DHT22;57248;47.320;15.998;2023-01-10T16:59:32;5.11;71.15
69938;DHT22;57248;47.320;15.998;2023-01-10T17:02:15;4.96;71.81
69938;DHT22;57248;47.320;15.998;2023-01-10T17:04:48;4.96;72.31
69938;DHT22;57248;47.320;15.998;2023-01-10T17:07:20;5.08;71.44
69938;DHT22;57248;47.320;15.998;2023-01-10T17:10:06;5.01;71.67
69938;DHT22;57248;47.320;15.998;2023-01-10T17:12:39;4.99;71.64
69938;DHT22;57248;47.320;15.998;2023-01-10T17:15:13;4.96;71.72
69938;DHT22;57248;47.320;15.998;2023-01-10T17:17:45;4.99;71.55
69938;DHT22;57248;47.320;15.998;2023-01-10T17:20:17;5.01;71.11
69938;DHT22;57248;47.320;15.998;2023-01-10T17:22:49;4.94;71.33
69938;DHT22;57248;47.320;15.998;2023-01-10T17:25:21;5.04;70.52
69938;DHT22;57248;47.320;15.998;2023-01-10T17:27:53;5.12;69.86
69938;DHT22;57248;47.320;15.998;2023-01-10T17:30:25;5.08;69.91
69938;DHT22;57248;47.320;15.998;2023-01-10T17:32:57;4.91;70.47
69938;DHT22;57248;47.320;15.998;2023-01-10T17:35:29;5.01;70.04
69938;DHT22;57248;47.320;15.998;2023-01-10T17:38:03;5.04;69.48
69938;DHT22;57248;47.320;15.998;2023-01-10T17:40:43;4.87;69.94
69938;DHT22;57248;47.320;15.998;2023-01-10T17:43:19;4.78;70.46
69938;DHT22;57248;47.320;15.998;2023-01-10T17:45:51;4.77;70.70
69938;DHT22;57248;47.320;15.998;2023-01-10T17:48:17;4.81;70.85
69938;DHT22;57248;47.320;15.998;2023-01-10T17:50:57;4.78;69.60
69938;DHT22;57248;47.320;15.998;2023-01-10T17:53:29;4.70;70.04
69938;DHT22;57248;47.320;15.998;2023-01-10T17:56:04;4.53;70.51
69938;DHT22;57248;47.320;15.998;2023-01-10T17:58:36;4.49;70.40
69938;DHT22;57248;47.320;15.998;2023-01-10T18:01:01;4.52;70.34
69938;DHT22;57248;47.320;15.998;2023-01-10T18:03:36;4.40;70.04
69938;DHT22;57248;47.320;15.998;2023-01-10T18:06:08;4.53;69.39
69938;DHT22;57248;47.320;15.998;2023-01-10T18:08:40;4.57;68.59